createdAt,value
2018-11-07T00:04:02.214Z,94828.78
2018-11-07T00:09:05.626Z,94835.47
2018-11-07T00:14:09.130Z,94829.84
2018-11-07T01:45:58.164Z,94798.80
2018-11-07T01:51:02.249Z,94789.36
2018-11-07T01:56:05.582Z,94779.19
2018-11-07T03:33:11.934Z,94739.69
2018-11-07T03:38:15.266Z,94745.14
2018-11-07T03:43:18.591Z,94750.34
2018-11-07T04:45:58.563Z,94733.52
2018-11-07T04:51:01.884Z,94726.15
2018-11-07T04:56:05.983Z,94734.08
2018-11-07T05:35:39.263Z,94739.14
2018-11-07T05:40:42.584Z,94729.53
2018-11-07T05:45:46.672Z,94734.35
2018-11-07T05:50:49.997Z,94737.02
2018-11-07T05:55:53.318Z,94726.69
2018-11-07T06:00:56.638Z,94718.83
2018-11-07T06:05:59.975Z,94737.70
2018-11-07T06:11:04.064Z,94745.08
2018-11-07T06:16:13.159Z,94753.91
2018-11-07T06:21:16.418Z,94750.73
2018-11-07T06:26:19.737Z,94761.72
2018-11-07T06:31:23.072Z,94763.81
2018-11-07T06:36:26.395Z,94767.13
2018-11-07T06:41:30.499Z,94763.94
2018-11-07T06:46:34.206Z,94761.66
2018-11-07T06:51:37.677Z,94764.70
2018-11-07T06:56:41.947Z,94772.00
2018-11-07T07:01:45.266Z,94767.07
2018-11-07T07:06:48.866Z,94769.94
2018-11-07T07:11:52.197Z,94762.75
2018-11-07T07:16:55.514Z,94760.39
2018-11-07T07:21:59.222Z,94757.20
2018-11-07T07:27:02.753Z,94775.23
2018-11-07T08:00:56.807Z,94757.94
2018-11-07T08:06:00.139Z,94762.23
2018-11-07T08:11:04.243Z,94757.87
2018-11-07T09:02:07.967Z,94761.89
2018-11-07T09:07:12.242Z,94764.72
2018-11-07T09:12:15.845Z,94775.13
2018-11-07T10:03:20.583Z,94755.78
2018-11-07T10:08:24.695Z,94747.91
2018-11-07T10:13:28.036Z,94741.95
2018-11-07T11:04:31.994Z,94709.97
2018-11-07T11:09:35.374Z,94703.41
2018-11-07T11:14:38.710Z,94695.02
2018-11-07T12:05:43.475Z,94663.86
2018-11-07T12:10:46.804Z,94674.32
2018-11-07T13:01:51.531Z,94652.31
2018-11-07T13:06:54.860Z,94654.00
2018-11-07T13:11:58.187Z,94668.05
2018-11-07T14:03:02.687Z,94673.76
2018-11-07T14:08:06.023Z,94677.49
2018-11-07T14:13:09.351Z,94674.80
2018-11-07T15:04:13.610Z,94687.81
2018-11-07T15:09:16.942Z,94688.66
2018-11-07T15:14:20.270Z,94677.99
2018-11-07T15:48:10.020Z,94732.31
2018-11-07T15:53:13.355Z,94751.61
2018-11-07T15:58:19.235Z,94759.31
2018-11-07T16:32:09.653Z,94802.93
2018-11-07T16:37:12.980Z,94827.41
2018-11-07T16:42:16.321Z,94833.08
2018-11-07T16:47:20.498Z,94849.47
2018-11-07T16:52:24.616Z,94861.47
2018-11-07T16:57:27.963Z,94873.48
2018-11-07T17:02:31.300Z,94875.19
2018-11-07T17:07:34.636Z,94883.23
2018-11-07T17:12:38.029Z,94904.95
2018-11-07T17:17:41.348Z,94907.97
2018-11-07T17:22:45.443Z,94907.20
2018-11-07T17:27:48.787Z,94919.88
2018-11-07T17:32:52.895Z,94928.38
2018-11-07T17:37:56.236Z,94939.61
2018-11-07T17:43:00.335Z,94945.91
2018-11-07T17:48:03.757Z,94947.35
2018-11-07T17:53:07.041Z,94963.81
2018-11-07T17:58:18.746Z,94965.44
2018-11-07T18:03:22.088Z,94957.17
2018-11-07T18:08:25.436Z,94953.45
2018-11-07T18:13:29.551Z,94951.02
2018-11-07T18:18:33.665Z,94957.20
2018-11-07T18:23:37.003Z,94962.41
2018-11-07T18:28:41.104Z,94980.95
2018-11-07T18:33:44.443Z,94986.16
2018-11-07T18:38:48.671Z,94997.27
2018-11-07T18:43:52.782Z,95007.87
2018-11-07T18:48:59.772Z,95006.31
2018-11-07T18:54:03.106Z,95014.41
2018-11-07T18:59:06.447Z,95030.33
2018-11-07T19:04:09.799Z,95035.90
2018-11-07T19:09:13.126Z,95037.05
2018-11-07T19:14:16.482Z,95049.23
2018-11-07T19:19:20.596Z,95057.45
2018-11-07T19:24:23.943Z,95053.83
2018-11-07T19:29:27.283Z,95060.84
2018-11-07T19:34:30.628Z,95072.95
2018-11-07T19:39:33.968Z,95077.59
2018-11-07T19:44:37.308Z,95093.53
2018-11-07T19:49:40.648Z,95089.22
2018-11-07T19:54:43.990Z,95093.97
2018-11-07T19:59:48.097Z,95100.42
2018-11-07T20:04:51.430Z,95109.58
2018-11-07T20:09:55.531Z,95115.74
2018-11-07T20:14:58.867Z,95121.64
2018-11-07T20:20:02.209Z,95133.89
2018-11-07T20:25:05.611Z,95147.20
2018-11-07T20:30:09.723Z,95156.99
2018-11-07T20:35:13.056Z,95162.28
2018-11-07T20:40:16.413Z,95173.67
2018-11-07T20:45:19.763Z,95175.98
2018-11-07T20:50:23.102Z,95178.66
2018-11-07T20:55:26.449Z,95176.06
2018-11-07T21:00:29.775Z,95183.34
2018-11-07T21:05:33.110Z,95197.65
2018-11-07T21:10:36.465Z,95200.78
2018-11-07T21:15:39.811Z,95201.92
2018-11-07T21:20:43.153Z,95210.71
2018-11-07T21:25:47.257Z,95211.66
2018-11-07T21:30:50.639Z,95211.88
2018-11-07T21:35:54.729Z,95213.16
2018-11-07T21:40:58.061Z,95216.70
2018-11-07T21:46:01.399Z,95221.74
2018-11-07T21:51:04.750Z,95222.13
2018-11-07T21:56:08.092Z,95219.91
2018-11-07T22:01:14.049Z,95221.61
2018-11-07T22:06:18.210Z,95237.62
2018-11-07T22:11:22.333Z,95246.43
2018-11-07T22:16:45.695Z,95252.45
2018-11-07T22:21:49.033Z,95256.84
2018-11-07T22:26:53.127Z,95264.45
2018-11-07T22:31:56.460Z,95263.02
2018-11-07T22:36:59.798Z,95269.83
2018-11-07T22:42:03.123Z,95273.73
2018-11-07T22:47:28.334Z,95290.02
2018-11-07T22:52:32.539Z,95287.44
2018-11-07T22:57:41.673Z,95286.33
2018-11-07T23:02:45.010Z,95298.05
2018-11-07T23:07:48.349Z,95295.58
2018-11-07T23:12:51.779Z,95306.06
2018-11-07T23:17:55.119Z,95305.13
2018-11-07T23:22:58.444Z,95311.08
2018-11-07T23:28:12.474Z,95318.48
2018-11-07T23:33:15.804Z,95322.08
2018-11-07T23:38:36.562Z,95337.08
2018-11-07T23:43:39.911Z,95334.67
2018-11-07T23:48:43.251Z,95337.66
2018-11-07T23:53:46.579Z,95331.44
2018-11-07T23:58:49.911Z,95340.41
